EZS1065 LFSB-LEBB
Flight info
| Callsign | EZS1065 |
|---|---|
| Flight time | 1h 28m |
| Altitude | 33000 |
| Route | MOROK T14 GILIR DCT TUROM DCT NINTU/N0431F370 DCT MEBAK/N0412F330 DCT REPSI DCT LERGA DCT MINSO/N0434F390 DCT NARAK DCT AGN DCT LATEK DCT PPN M601 CEGAM |
| Aircraft | A20N/M-SDE2E3FGHIJ1RWXYZ/LB1 |
Departure
| Time | 2026-04-29 08:02 |
|---|---|
| Airport | EuroAirport Basel–Mulhouse–Freiburg (LFSB) |
Arrival
| Time | 2026-04-29 09:30 |
|---|---|
| Airport | Bilbao Airport (LEBB) |
| Time | Latitude | Longitude | Altitude | Speed | Heading |
|---|---|---|---|---|---|
| 2026-04-29 07:26 | 47.59780 | 7.52949 | 867 ft | 0 kts | 315° |
| 2026-04-29 07:50 | 47.59774 | 7.52957 | 867 ft | 2 kts | 309° |
| 2026-04-29 07:50 | 47.59764 | 7.52973 | 867 ft | 2 kts | 317° |
| 2026-04-29 07:51 | 47.59757 | 7.52984 | 867 ft | 0 kts | 315° |
| 2026-04-29 07:51 | 47.59748 | 7.52999 | 867 ft | 2 kts | 293° |
| 2026-04-29 07:51 | 47.59745 | 7.53021 | 867 ft | 2 kts | 270° |
| 2026-04-29 07:51 | 47.59747 | 7.53044 | 867 ft | 2 kts | 245° |
| 2026-04-29 07:52 | 47.59756 | 7.53062 | 866 ft | 2 kts | 222° |
| 2026-04-29 07:52 | 47.59769 | 7.53074 | 866 ft | 2 kts | 198° |
| 2026-04-29 07:52 | 47.59776 | 7.53077 | 866 ft | 1 kts | 185° |
| 2026-04-29 07:52 | 47.59782 | 7.53078 | 866 ft | 0 kts | 186° |
| 2026-04-29 07:54 | 47.59781 | 7.53077 | 866 ft | 0 kts | 186° |
| 2026-04-29 07:55 | 47.59774 | 7.53076 | 866 ft | 2 kts | 186° |
| 2026-04-29 07:55 | 47.59747 | 7.53071 | 867 ft | 5 kts | 188° |
| 2026-04-29 07:55 | 47.59705 | 7.53061 | 869 ft | 5 kts | 192° |
| 2026-04-29 07:55 | 47.59679 | 7.53034 | 870 ft | 3 kts | 233° |
| 2026-04-29 07:56 | 47.59666 | 7.53000 | 870 ft | 4 kts | 244° |
| 2026-04-29 07:56 | 47.59649 | 7.52948 | 871 ft | 6 kts | 244° |
| 2026-04-29 07:56 | 47.59625 | 7.52870 | 871 ft | 9 kts | 246° |
| 2026-04-29 07:56 | 47.59576 | 7.52810 | 870 ft | 10 kts | 175° |
| 2026-04-29 07:57 | 47.59508 | 7.52855 | 871 ft | 11 kts | 154° |
| 2026-04-29 07:57 | 47.59433 | 7.52907 | 871 ft | 12 kts | 155° |
| 2026-04-29 07:57 | 47.59353 | 7.52963 | 871 ft | 13 kts | 155° |
| 2026-04-29 07:57 | 47.59266 | 7.53024 | 871 ft | 14 kts | 155° |
| 2026-04-29 07:58 | 47.59184 | 7.53098 | 871 ft | 13 kts | 118° |
| 2026-04-29 07:58 | 47.59169 | 7.53227 | 872 ft | 9 kts | 128° |
| 2026-04-29 07:58 | 47.59146 | 7.53310 | 873 ft | 8 kts | 80° |
| 2026-04-29 07:58 | 47.59161 | 7.53394 | 874 ft | 8 kts | 76° |
| 2026-04-29 07:59 | 47.59178 | 7.53496 | 872 ft | 12 kts | 78° |
| 2026-04-29 07:59 | 47.59201 | 7.53647 | 868 ft | 17 kts | 78° |
| 2026-04-29 07:59 | 47.59232 | 7.53843 | 862 ft | 20 kts | 76° |
| 2026-04-29 07:59 | 47.59232 | 7.53985 | 861 ft | 14 kts | 121° |
| 2026-04-29 08:00 | 47.59188 | 7.54066 | 861 ft | 4 kts | 165° |
| 2026-04-29 08:00 | 47.59164 | 7.54039 | 861 ft | 5 kts | 249° |
| 2026-04-29 08:00 | 47.59154 | 7.53986 | 862 ft | 4 kts | 257° |
| 2026-04-29 08:00 | 47.59147 | 7.53943 | 864 ft | 5 kts | 257° |
| 2026-04-29 08:01 | 47.59141 | 7.53899 | 866 ft | 0 kts | 257° |
| 2026-04-29 08:01 | 47.59140 | 7.53897 | 866 ft | 6 kts | 257° |
| 2026-04-29 08:01 | 47.59058 | 7.53375 | 874 ft | 93 kts | 257° |
| 2026-04-29 08:01 | 47.58852 | 7.52096 | 950 ft | 151 kts | 259° |
| 2026-04-29 08:02 | 47.58626 | 7.50599 | 1622 ft | 151 kts | 261° |
| 2026-04-29 08:02 | 47.58416 | 7.49116 | 2381 ft | 151 kts | 261° |
| 2026-04-29 08:02 | 47.58190 | 7.47615 | 2956 ft | 153 kts | 255° |
| 2026-04-29 08:02 | 47.57862 | 7.46093 | 3334 ft | 167 kts | 251° |
| 2026-04-29 08:03 | 47.57478 | 7.44474 | 3698 ft | 183 kts | 250° |
| 2026-04-29 08:03 | 47.57035 | 7.42607 | 4079 ft | 203 kts | 251° |
| 2026-04-29 08:03 | 47.56550 | 7.40506 | 4562 ft | 220 kts | 251° |
| 2026-04-29 08:03 | 47.56039 | 7.38245 | 4968 ft | 243 kts | 252° |
| 2026-04-29 08:04 | 47.55487 | 7.35773 | 5469 ft | 263 kts | 252° |
| 2026-04-29 08:04 | 47.54899 | 7.33136 | 6094 ft | 278 kts | 251° |
| 2026-04-29 08:04 | 47.54284 | 7.30371 | 6799 ft | 289 kts | 251° |
| 2026-04-29 08:04 | 47.53637 | 7.27479 | 7710 ft | 293 kts | 252° |
| 2026-04-29 08:05 | 47.52995 | 7.24610 | 8687 ft | 293 kts | 253° |
| 2026-04-29 08:05 | 47.52352 | 7.21738 | 9581 ft | 295 kts | 253° |
| 2026-04-29 08:05 | 47.51708 | 7.18847 | 10471 ft | 297 kts | 253° |
| 2026-04-29 08:05 | 47.51040 | 7.15834 | 11059 ft | 311 kts | 253° |
| 2026-04-29 08:06 | 47.50349 | 7.12725 | 11542 ft | 326 kts | 253° |
| 2026-04-29 08:06 | 47.49640 | 7.09550 | 12290 ft | 331 kts | 253° |
| 2026-04-29 08:06 | 47.48912 | 7.06303 | 13135 ft | 333 kts | 253° |
| 2026-04-29 08:06 | 47.48185 | 7.03072 | 13950 ft | 335 kts | 253° |
| 2026-04-29 08:07 | 47.47454 | 6.99839 | 14770 ft | 338 kts | 253° |
| 2026-04-29 08:07 | 47.46702 | 6.96508 | 15509 ft | 341 kts | 253° |
| 2026-04-29 08:07 | 47.45956 | 6.93208 | 16295 ft | 342 kts | 253° |
| 2026-04-29 08:07 | 47.45208 | 6.89904 | 17066 ft | 344 kts | 253° |
| 2026-04-29 08:08 | 47.44449 | 6.86553 | 17768 ft | 347 kts | 253° |
| 2026-04-29 08:08 | 47.43676 | 6.83149 | 18479 ft | 349 kts | 253° |
| 2026-04-29 08:08 | 47.42903 | 6.79757 | 19170 ft | 351 kts | 253° |
| 2026-04-29 08:08 | 47.42130 | 6.76365 | 19841 ft | 353 kts | 253° |
| 2026-04-29 08:09 | 47.41373 | 6.73049 | 20490 ft | 355 kts | 253° |
| 2026-04-29 08:09 | 47.40576 | 6.69594 | 21138 ft | 357 kts | 252° |
| 2026-04-29 08:09 | 47.39461 | 6.66274 | 21753 ft | 364 kts | 240° |
| 2026-04-29 08:09 | 47.37888 | 6.63370 | 22349 ft | 370 kts | 229° |
| 2026-04-29 08:10 | 47.35955 | 6.60813 | 22954 ft | 374 kts | 224° |
| 2026-04-29 08:10 | 47.33969 | 6.58348 | 23529 ft | 377 kts | 224° |
| 2026-04-29 08:10 | 47.31965 | 6.55859 | 24102 ft | 379 kts | 224° |
| 2026-04-29 08:10 | 47.29946 | 6.53343 | 24654 ft | 382 kts | 224° |
| 2026-04-29 08:11 | 47.27907 | 6.50794 | 25200 ft | 384 kts | 224° |
| 2026-04-29 08:11 | 47.25948 | 6.48347 | 25691 ft | 387 kts | 225° |
| 2026-04-29 08:11 | 47.23893 | 6.45778 | 26209 ft | 389 kts | 225° |
| 2026-04-29 08:11 | 47.21806 | 6.43171 | 26703 ft | 392 kts | 224° |
| 2026-04-29 08:12 | 47.19723 | 6.40570 | 27165 ft | 394 kts | 224° |
| 2026-04-29 08:12 | 47.17638 | 6.37971 | 27619 ft | 397 kts | 224° |
| 2026-04-29 08:12 | 47.15525 | 6.35340 | 28072 ft | 399 kts | 224° |
| 2026-04-29 08:12 | 47.13412 | 6.32712 | 28521 ft | 401 kts | 224° |
| 2026-04-29 08:13 | 47.11265 | 6.30046 | 28972 ft | 403 kts | 224° |
| 2026-04-29 08:13 | 47.09126 | 6.27392 | 29495 ft | 403 kts | 224° |
| 2026-04-29 08:13 | 47.07006 | 6.24765 | 30108 ft | 400 kts | 224° |
| 2026-04-29 08:13 | 47.04917 | 6.22179 | 30707 ft | 397 kts | 224° |
| 2026-04-29 08:14 | 47.02818 | 6.19581 | 31262 ft | 395 kts | 224° |
| 2026-04-29 08:14 | 47.00845 | 6.17140 | 31698 ft | 395 kts | 224° |
| 2026-04-29 08:14 | 46.98731 | 6.14527 | 32060 ft | 397 kts | 224° |
| 2026-04-29 08:14 | 46.96624 | 6.11926 | 32381 ft | 399 kts | 223° |
| 2026-04-29 08:15 | 46.94512 | 6.09323 | 32698 ft | 401 kts | 224° |
| 2026-04-29 08:15 | 46.92374 | 6.06693 | 32994 ft | 403 kts | 223° |
| 2026-04-29 08:15 | 46.88015 | 6.01459 | 33034 ft | 406 kts | 220° |
| 2026-04-29 08:16 | 46.83276 | 5.96835 | 33035 ft | 409 kts | 213° |
| 2026-04-29 08:16 | 46.78189 | 5.93059 | 33035 ft | 412 kts | 207° |
| 2026-04-29 08:17 | 46.72888 | 5.89863 | 33033 ft | 412 kts | 206° |
| 2026-04-29 08:17 | 46.67477 | 5.86615 | 33035 ft | 413 kts | 206° |
| 2026-04-29 08:18 | 46.61786 | 5.83205 | 33034 ft | 413 kts | 206° |
| 2026-04-29 08:18 | 46.56117 | 5.79816 | 33033 ft | 413 kts | 206° |
| 2026-04-29 08:19 | 46.50504 | 5.76469 | 33027 ft | 413 kts | 206° |
| 2026-04-29 08:19 | 46.44947 | 5.73163 | 33024 ft | 413 kts | 206° |
| 2026-04-29 08:20 | 46.39384 | 5.69861 | 33024 ft | 414 kts | 206° |
| 2026-04-29 08:20 | 46.33702 | 5.66497 | 33024 ft | 413 kts | 206° |
| 2026-04-29 08:21 | 46.28078 | 5.63174 | 33020 ft | 413 kts | 206° |
| 2026-04-29 08:21 | 46.22553 | 5.59914 | 33024 ft | 414 kts | 206° |
| 2026-04-29 08:22 | 46.17305 | 5.55846 | 33019 ft | 408 kts | 218° |
| 2026-04-29 08:22 | 46.12731 | 5.50268 | 33015 ft | 404 kts | 230° |
| 2026-04-29 08:23 | 46.09071 | 5.43589 | 33013 ft | 401 kts | 238° |
| 2026-04-29 08:23 | 46.05753 | 5.36662 | 33010 ft | 401 kts | 238° |
| 2026-04-29 08:24 | 46.02478 | 5.29838 | 33005 ft | 401 kts | 237° |
| 2026-04-29 08:24 | 45.99192 | 5.23023 | 33009 ft | 402 kts | 237° |
| 2026-04-29 08:25 | 45.95830 | 5.16072 | 33009 ft | 403 kts | 237° |
| 2026-04-29 08:25 | 45.92475 | 5.09159 | 33007 ft | 403 kts | 237° |
| 2026-04-29 08:26 | 45.89109 | 5.02239 | 33010 ft | 404 kts | 237° |
| 2026-04-29 08:26 | 45.85708 | 4.95262 | 33010 ft | 403 kts | 237° |
| 2026-04-29 08:27 | 45.82323 | 4.88335 | 33012 ft | 403 kts | 237° |
| 2026-04-29 08:27 | 45.78963 | 4.81480 | 33012 ft | 402 kts | 237° |
| 2026-04-29 08:28 | 45.75568 | 4.74568 | 33009 ft | 403 kts | 237° |
| 2026-04-29 08:28 | 45.72150 | 4.67631 | 33010 ft | 402 kts | 237° |
| 2026-04-29 08:29 | 45.68792 | 4.60825 | 33007 ft | 402 kts | 237° |
| 2026-04-29 08:29 | 45.65424 | 4.54012 | 33011 ft | 401 kts | 237° |
| 2026-04-29 08:30 | 45.60347 | 4.43778 | 33012 ft | 401 kts | 237° |
| 2026-04-29 08:31 | 45.56910 | 4.36872 | 33015 ft | 400 kts | 237° |
| 2026-04-29 08:31 | 45.53546 | 4.30134 | 33016 ft | 400 kts | 236° |
| 2026-04-29 08:32 | 45.50176 | 4.23396 | 33017 ft | 400 kts | 236° |
| 2026-04-29 08:32 | 45.46749 | 4.16563 | 33035 ft | 404 kts | 236° |
| 2026-04-29 08:32 | 45.45005 | 4.13091 | 33198 ft | 410 kts | 236° |
| 2026-04-29 08:33 | 45.43276 | 4.09655 | 33447 ft | 413 kts | 236° |
| 2026-04-29 08:33 | 45.41530 | 4.06191 | 33842 ft | 412 kts | 236° |
| 2026-04-29 08:33 | 45.39779 | 4.02721 | 34300 ft | 410 kts | 236° |
| 2026-04-29 08:33 | 45.38042 | 3.99283 | 34713 ft | 407 kts | 236° |
| 2026-04-29 08:34 | 45.36264 | 3.95767 | 35065 ft | 406 kts | 236° |
| 2026-04-29 08:34 | 45.34555 | 3.92393 | 35374 ft | 405 kts | 236° |
| 2026-04-29 08:34 | 45.32784 | 3.88901 | 35657 ft | 405 kts | 236° |
| 2026-04-29 08:34 | 45.31034 | 3.85454 | 35938 ft | 404 kts | 236° |
| 2026-04-29 08:35 | 45.29304 | 3.82049 | 36196 ft | 404 kts | 236° |
| 2026-04-29 08:35 | 45.27558 | 3.78618 | 36444 ft | 404 kts | 235° |
| 2026-04-29 08:35 | 45.25818 | 3.75201 | 36705 ft | 403 kts | 235° |
| 2026-04-29 08:35 | 45.24082 | 3.71719 | 37014 ft | 402 kts | 236° |
| 2026-04-29 08:36 | 45.22354 | 3.68195 | 37308 ft | 402 kts | 236° |
| 2026-04-29 08:36 | 45.20648 | 3.64718 | 37584 ft | 402 kts | 236° |
| 2026-04-29 08:36 | 45.18945 | 3.61254 | 37844 ft | 402 kts | 236° |
| 2026-04-29 08:36 | 45.17229 | 3.57773 | 38087 ft | 402 kts | 236° |
| 2026-04-29 08:37 | 45.15556 | 3.54386 | 38350 ft | 401 kts | 236° |
| 2026-04-29 08:37 | 45.13837 | 3.50909 | 38582 ft | 401 kts | 236° |
| 2026-04-29 08:37 | 45.12107 | 3.47416 | 38782 ft | 401 kts | 236° |
| 2026-04-29 08:37 | 45.10363 | 3.43899 | 38988 ft | 401 kts | 236° |
| 2026-04-29 08:38 | 45.08666 | 3.40480 | 38998 ft | 401 kts | 236° |
| 2026-04-29 08:38 | 45.05326 | 3.33768 | 39003 ft | 400 kts | 235° |
| 2026-04-29 08:39 | 45.01949 | 3.26995 | 38999 ft | 401 kts | 235° |
| 2026-04-29 08:39 | 44.98468 | 3.20031 | 38998 ft | 401 kts | 234° |
| 2026-04-29 08:40 | 44.94966 | 3.13045 | 38991 ft | 402 kts | 235° |
| 2026-04-29 08:40 | 44.91509 | 3.06167 | 38980 ft | 402 kts | 235° |
| 2026-04-29 08:41 | 44.88035 | 2.99265 | 38979 ft | 402 kts | 235° |
| 2026-04-29 08:41 | 44.84619 | 2.92436 | 38977 ft | 402 kts | 237° |
| 2026-04-29 08:42 | 44.81389 | 2.85424 | 38971 ft | 402 kts | 237° |
| 2026-04-29 08:42 | 44.78185 | 2.78472 | 38967 ft | 402 kts | 237° |
| 2026-04-29 08:43 | 44.74941 | 2.71452 | 38964 ft | 403 kts | 237° |
| 2026-04-29 08:43 | 44.71688 | 2.64426 | 38960 ft | 405 kts | 237° |
| 2026-04-29 08:44 | 44.68417 | 2.57380 | 38964 ft | 404 kts | 237° |
| 2026-04-29 08:44 | 44.65238 | 2.50551 | 38961 ft | 404 kts | 237° |
| 2026-04-29 08:45 | 44.61982 | 2.43569 | 38949 ft | 403 kts | 237° |
| 2026-04-29 08:45 | 44.58682 | 2.36514 | 38947 ft | 404 kts | 237° |
| 2026-04-29 08:46 | 44.55419 | 2.29554 | 38946 ft | 404 kts | 236° |
| 2026-04-29 08:46 | 44.52159 | 2.22616 | 38937 ft | 404 kts | 236° |
| 2026-04-29 08:47 | 44.48876 | 2.15646 | 38933 ft | 404 kts | 236° |
| 2026-04-29 08:47 | 44.45568 | 2.08637 | 38931 ft | 404 kts | 236° |
| 2026-04-29 08:48 | 44.42271 | 2.01670 | 38938 ft | 405 kts | 236° |
| 2026-04-29 08:48 | 44.39050 | 1.94880 | 38927 ft | 404 kts | 236° |
| 2026-04-29 08:49 | 44.35754 | 1.87952 | 38921 ft | 404 kts | 236° |
| 2026-04-29 08:49 | 44.32516 | 1.81159 | 38922 ft | 404 kts | 236° |
| 2026-04-29 08:50 | 44.29268 | 1.74356 | 38916 ft | 405 kts | 236° |
| 2026-04-29 08:50 | 44.26074 | 1.67411 | 38919 ft | 404 kts | 237° |
| 2026-04-29 08:51 | 44.22918 | 1.60520 | 38917 ft | 404 kts | 237° |
| 2026-04-29 08:51 | 44.19685 | 1.53488 | 38904 ft | 404 kts | 237° |
| 2026-04-29 08:52 | 44.16423 | 1.46424 | 38902 ft | 404 kts | 237° |
| 2026-04-29 08:52 | 44.13248 | 1.39565 | 38898 ft | 405 kts | 236° |
| 2026-04-29 08:53 | 44.10089 | 1.32756 | 38896 ft | 404 kts | 236° |
| 2026-04-29 08:53 | 44.06800 | 1.25686 | 38892 ft | 404 kts | 236° |
| 2026-04-29 08:54 | 44.03534 | 1.18681 | 38889 ft | 404 kts | 235° |
| 2026-04-29 08:54 | 44.00280 | 1.11722 | 38883 ft | 403 kts | 235° |
| 2026-04-29 08:55 | 43.97027 | 1.04780 | 38883 ft | 403 kts | 235° |
| 2026-04-29 08:55 | 43.93738 | 0.97776 | 38870 ft | 403 kts | 235° |
| 2026-04-29 08:56 | 43.90491 | 0.90900 | 38863 ft | 403 kts | 234° |
| 2026-04-29 08:56 | 43.87003 | 0.84548 | 38869 ft | 404 kts | 228° |
| 2026-04-29 08:57 | 43.82987 | 0.78311 | 38875 ft | 403 kts | 227° |
| 2026-04-29 08:57 | 43.78969 | 0.72106 | 38884 ft | 402 kts | 227° |
| 2026-04-29 08:58 | 43.75026 | 0.66026 | 38885 ft | 401 kts | 227° |
| 2026-04-29 08:58 | 43.70992 | 0.59821 | 38881 ft | 402 kts | 227° |
| 2026-04-29 08:59 | 43.66979 | 0.53664 | 38877 ft | 403 kts | 227° |
| 2026-04-29 08:59 | 43.63103 | 0.47725 | 38878 ft | 403 kts | 227° |
| 2026-04-29 09:00 | 43.59163 | 0.41706 | 38872 ft | 403 kts | 227° |
| 2026-04-29 09:00 | 43.55175 | 0.35623 | 38864 ft | 403 kts | 227° |
| 2026-04-29 09:01 | 43.51141 | 0.29485 | 38860 ft | 403 kts | 226° |
| 2026-04-29 09:01 | 43.47124 | 0.23383 | 38858 ft | 402 kts | 226° |
| 2026-04-29 09:02 | 43.43103 | 0.17289 | 38854 ft | 402 kts | 226° |
| 2026-04-29 09:02 | 43.39135 | 0.11288 | 38859 ft | 402 kts | 226° |
| 2026-04-29 09:03 | 43.35121 | 0.05230 | 38870 ft | 402 kts | 226° |
| 2026-04-29 09:03 | 43.31127 | -0.00784 | 38868 ft | 402 kts | 226° |
| 2026-04-29 09:04 | 43.27247 | -0.06613 | 38877 ft | 401 kts | 226° |
| 2026-04-29 09:04 | 43.23178 | -0.12715 | 38861 ft | 402 kts | 226° |
| 2026-04-29 09:05 | 43.19178 | -0.18701 | 38880 ft | 401 kts | 226° |
| 2026-04-29 09:05 | 43.15238 | -0.24586 | 38893 ft | 401 kts | 226° |
| 2026-04-29 09:06 | 43.11234 | -0.30551 | 38497 ft | 401 kts | 226° |
| 2026-04-29 09:06 | 43.09304 | -0.33423 | 38202 ft | 396 kts | 226° |
| 2026-04-29 09:06 | 43.07381 | -0.36283 | 37900 ft | 392 kts | 226° |
| 2026-04-29 09:06 | 43.05423 | -0.39190 | 37508 ft | 389 kts | 226° |
| 2026-04-29 09:07 | 43.03522 | -0.42010 | 37094 ft | 388 kts | 226° |
| 2026-04-29 09:07 | 43.01604 | -0.44853 | 36598 ft | 389 kts | 226° |
| 2026-04-29 09:07 | 42.99677 | -0.47707 | 36079 ft | 390 kts | 226° |
| 2026-04-29 09:07 | 42.97721 | -0.50598 | 35444 ft | 392 kts | 226° |
| 2026-04-29 09:08 | 42.95769 | -0.53481 | 34797 ft | 395 kts | 226° |
| 2026-04-29 09:08 | 42.93777 | -0.56420 | 34058 ft | 396 kts | 226° |
| 2026-04-29 09:08 | 42.91870 | -0.59483 | 33326 ft | 397 kts | 231° |
| 2026-04-29 09:08 | 42.90218 | -0.62711 | 32631 ft | 398 kts | 236° |
| 2026-04-29 09:09 | 42.88752 | -0.66235 | 31861 ft | 402 kts | 240° |
| 2026-04-29 09:09 | 42.87544 | -0.69920 | 31113 ft | 405 kts | 245° |
| 2026-04-29 09:10 | 42.85428 | -0.81337 | 29432 ft | 400 kts | 256° |
| 2026-04-29 09:10 | 42.84906 | -0.85312 | 28923 ft | 397 kts | 256° |
| 2026-04-29 09:10 | 42.84399 | -0.89172 | 28421 ft | 393 kts | 256° |
| 2026-04-29 09:10 | 42.83901 | -0.92962 | 27935 ft | 390 kts | 256° |
| 2026-04-29 09:11 | 42.83410 | -0.96663 | 27456 ft | 387 kts | 256° |
| 2026-04-29 09:11 | 42.82930 | -1.00270 | 26996 ft | 384 kts | 256° |
| 2026-04-29 09:11 | 42.82452 | -1.03862 | 26534 ft | 381 kts | 256° |
| 2026-04-29 09:11 | 42.81981 | -1.07378 | 26076 ft | 379 kts | 256° |
| 2026-04-29 09:12 | 42.81508 | -1.10905 | 25620 ft | 377 kts | 256° |
| 2026-04-29 09:12 | 42.81059 | -1.14248 | 25180 ft | 375 kts | 256° |
| 2026-04-29 09:12 | 42.80577 | -1.17815 | 24703 ft | 373 kts | 256° |
| 2026-04-29 09:12 | 42.80081 | -1.21482 | 24213 ft | 371 kts | 256° |
| 2026-04-29 09:13 | 42.79602 | -1.25025 | 23742 ft | 369 kts | 256° |
| 2026-04-29 09:13 | 42.79122 | -1.28560 | 23261 ft | 368 kts | 256° |
| 2026-04-29 09:13 | 42.78631 | -1.32166 | 22778 ft | 366 kts | 256° |
| 2026-04-29 09:13 | 42.78149 | -1.35704 | 22309 ft | 365 kts | 256° |
| 2026-04-29 09:14 | 42.77653 | -1.39336 | 21816 ft | 364 kts | 256° |
| 2026-04-29 09:14 | 42.77175 | -1.42809 | 21342 ft | 362 kts | 256° |
| 2026-04-29 09:14 | 42.76681 | -1.46405 | 20860 ft | 361 kts | 256° |
| 2026-04-29 09:14 | 42.76187 | -1.49986 | 20369 ft | 359 kts | 256° |
| 2026-04-29 09:15 | 42.75706 | -1.53466 | 19902 ft | 357 kts | 256° |
| 2026-04-29 09:15 | 42.75214 | -1.57018 | 19412 ft | 355 kts | 256° |
| 2026-04-29 09:15 | 42.74728 | -1.60516 | 18929 ft | 354 kts | 256° |
| 2026-04-29 09:15 | 42.74237 | -1.64045 | 18434 ft | 352 kts | 256° |
| 2026-04-29 09:16 | 42.73804 | -1.67467 | 17948 ft | 352 kts | 262° |
| 2026-04-29 09:16 | 42.74024 | -1.70798 | 17483 ft | 358 kts | 282° |
| 2026-04-29 09:16 | 42.75060 | -1.73890 | 17041 ft | 362 kts | 298° |
| 2026-04-29 09:16 | 42.76496 | -1.76915 | 16576 ft | 360 kts | 299° |
| 2026-04-29 09:17 | 42.77946 | -1.79924 | 16105 ft | 358 kts | 299° |
| 2026-04-29 09:17 | 42.79414 | -1.82995 | 15632 ft | 356 kts | 299° |
| 2026-04-29 09:17 | 42.80818 | -1.85963 | 15182 ft | 353 kts | 299° |
| 2026-04-29 09:17 | 42.82242 | -1.88996 | 14718 ft | 350 kts | 298° |
| 2026-04-29 09:18 | 42.83616 | -1.91928 | 14269 ft | 348 kts | 298° |
| 2026-04-29 09:18 | 42.84929 | -1.94731 | 13843 ft | 346 kts | 298° |
| 2026-04-29 09:18 | 42.86282 | -1.97619 | 13394 ft | 344 kts | 298° |
| 2026-04-29 09:18 | 42.87647 | -2.00534 | 12933 ft | 341 kts | 298° |
| 2026-04-29 09:19 | 42.88987 | -2.03397 | 12480 ft | 339 kts | 298° |
| 2026-04-29 09:19 | 42.90303 | -2.06214 | 12034 ft | 336 kts | 298° |
| 2026-04-29 09:19 | 42.91558 | -2.08908 | 11608 ft | 334 kts | 298° |
| 2026-04-29 09:19 | 42.92797 | -2.11573 | 11184 ft | 332 kts | 298° |
| 2026-04-29 09:20 | 42.94028 | -2.14214 | 10777 ft | 330 kts | 297° |
| 2026-04-29 09:20 | 42.95200 | -2.16738 | 10368 ft | 328 kts | 297° |
| 2026-04-29 09:20 | 42.96411 | -2.19340 | 10091 ft | 320 kts | 297° |
| 2026-04-29 09:20 | 42.97588 | -2.21854 | 9962 ft | 308 kts | 298° |
| 2026-04-29 09:21 | 42.98904 | -2.24259 | 9794 ft | 300 kts | 305° |
| 2026-04-29 09:21 | 43.00354 | -2.26446 | 9410 ft | 300 kts | 308° |
| 2026-04-29 09:21 | 43.01806 | -2.28522 | 9040 ft | 299 kts | 309° |
| 2026-04-29 09:21 | 43.03298 | -2.30640 | 8651 ft | 298 kts | 309° |
| 2026-04-29 09:22 | 43.04812 | -2.32800 | 8270 ft | 297 kts | 309° |
| 2026-04-29 09:22 | 43.06272 | -2.34886 | 7903 ft | 295 kts | 309° |
| 2026-04-29 09:22 | 43.07732 | -2.36978 | 7529 ft | 294 kts | 309° |
| 2026-04-29 09:22 | 43.09228 | -2.39121 | 7152 ft | 293 kts | 309° |
| 2026-04-29 09:23 | 43.10668 | -2.41183 | 6793 ft | 291 kts | 309° |
| 2026-04-29 09:23 | 43.12001 | -2.43118 | 6475 ft | 288 kts | 307° |
| 2026-04-29 09:23 | 43.13170 | -2.45278 | 6143 ft | 282 kts | 297° |
| 2026-04-29 09:23 | 43.14127 | -2.47498 | 5878 ft | 277 kts | 295° |
| 2026-04-29 09:24 | 43.15044 | -2.49782 | 5839 ft | 263 kts | 293° |
| 2026-04-29 09:24 | 43.15861 | -2.51922 | 5838 ft | 247 kts | 292° |
| 2026-04-29 09:24 | 43.16622 | -2.53978 | 5834 ft | 239 kts | 292° |
| 2026-04-29 09:24 | 43.17357 | -2.56004 | 5605 ft | 238 kts | 292° |
| 2026-04-29 09:25 | 43.18090 | -2.58039 | 5381 ft | 237 kts | 292° |
| 2026-04-29 09:25 | 43.18829 | -2.60096 | 5160 ft | 237 kts | 292° |
| 2026-04-29 09:25 | 43.19561 | -2.62128 | 4947 ft | 237 kts | 292° |
| 2026-04-29 09:25 | 43.20288 | -2.64138 | 4730 ft | 234 kts | 293° |
| 2026-04-29 09:26 | 43.21016 | -2.66148 | 4399 ft | 235 kts | 292° |
| 2026-04-29 09:26 | 43.21769 | -2.68222 | 4037 ft | 238 kts | 293° |
| 2026-04-29 09:26 | 43.22506 | -2.70252 | 3681 ft | 240 kts | 294° |
| 2026-04-29 09:26 | 43.23221 | -2.72213 | 3328 ft | 238 kts | 294° |
| 2026-04-29 09:27 | 43.23943 | -2.74193 | 2974 ft | 231 kts | 295° |
| 2026-04-29 09:27 | 43.24646 | -2.76122 | 2625 ft | 217 kts | 295° |
| 2026-04-29 09:27 | 43.25304 | -2.77922 | 2329 ft | 207 kts | 295° |
| 2026-04-29 09:27 | 43.25933 | -2.79647 | 2089 ft | 193 kts | 296° |
| 2026-04-29 09:28 | 43.26516 | -2.81244 | 1792 ft | 183 kts | 296° |
| 2026-04-29 09:28 | 43.27037 | -2.82668 | 1507 ft | 173 kts | 296° |
| 2026-04-29 09:28 | 43.27549 | -2.84076 | 1229 ft | 161 kts | 297° |
| 2026-04-29 09:28 | 43.28012 | -2.85364 | 992 ft | 149 kts | 297° |
| 2026-04-29 09:29 | 43.28452 | -2.86571 | 764 ft | 138 kts | 299° |
| 2026-04-29 09:29 | 43.29314 | -2.88908 | 369 ft | 136 kts | 301° |
| 2026-04-29 09:29 | 43.29739 | -2.90057 | 186 ft | 135 kts | 301° |
| 2026-04-29 09:30 | 43.30131 | -2.91110 | 148 ft | 94 kts | 297° |
| 2026-04-29 09:30 | 43.30294 | -2.91564 | 143 ft | 31 kts | 298° |
| 2026-04-29 09:30 | 43.30390 | -2.91810 | 140 ft | 30 kts | 302° |
| 2026-04-29 09:30 | 43.30532 | -2.91992 | 139 ft | 27 kts | 324° |
| 2026-04-29 09:31 | 43.30630 | -2.92007 | 141 ft | 13 kts | 75° |
| 2026-04-29 09:31 | 43.30602 | -2.91894 | 142 ft | 12 kts | 116° |
| 2026-04-29 09:31 | 43.30564 | -2.91790 | 144 ft | 12 kts | 116° |
| 2026-04-29 09:31 | 43.30521 | -2.91674 | 146 ft | 15 kts | 117° |
| 2026-04-29 09:32 | 43.30468 | -2.91532 | 148 ft | 18 kts | 117° |
| 2026-04-29 09:32 | 43.30406 | -2.91364 | 150 ft | 21 kts | 116° |
| 2026-04-29 09:32 | 43.30340 | -2.91184 | 152 ft | 20 kts | 116° |
| 2026-04-29 09:32 | 43.30309 | -2.91046 | 154 ft | 11 kts | 63° |
| 2026-04-29 09:33 | 43.30375 | -2.90992 | 156 ft | 10 kts | 27° |
| 2026-04-29 09:33 | 43.30404 | -2.90918 | 158 ft | 8 kts | 84° |
| 2026-04-29 09:33 | 43.30408 | -2.90837 | 159 ft | 8 kts | 87° |
| 2026-04-29 09:33 | 43.30418 | -2.90773 | 159 ft | 5 kts | 41° |
| 2026-04-29 09:34 | 43.30446 | -2.90753 | 161 ft | 3 kts | 25° |
| 2026-04-29 09:34 | 43.30465 | -2.90741 | 161 ft | 0 kts | 26° |